Time;durP1;ratioP1;P1;durP2;ratioP2;P2;SDS_P1;SDS_P2;PMS_P1;PMS_P2;Temp;Humidity;BMP_temperature;BMP_pressure;BME280_temperature;BME280_humidity;BME280_pressure;Samples;Min_cycle;Max_cycle;Signal;HPM_P1;HPM_P2
2023/12/18 00:02:19;;;;;;;9.60;5.15;;;3.30;66.60;;;;;;4957119;29;20027;-78
2023/12/18 00:04:44;;;;;;;8.77;4.90;;;3.30;65.60;;;;;;4957386;29;20106;-77
2023/12/18 00:07:10;;;;;;;6.15;3.63;;;3.40;64.40;;;;;;4957043;29;20536;-77
2023/12/18 00:09:36;;;;;;;6.65;3.22;;;3.40;62.70;;;;;;4957045;29;20027;-79
2023/12/18 00:12:01;;;;;;;6.13;3.72;;;3.50;61.90;;;;;;4957018;29;20053;-78
2023/12/18 00:14:26;;;;;;;4.88;3.08;;;3.50;61.60;;;;;;4957004;29;20475;-78
2023/12/18 00:16:52;;;;;;;5.15;3.83;;;3.60;61.40;;;;;;4956965;29;20030;-77
2023/12/18 00:19:18;;;;;;;5.22;3.33;;;3.60;61.20;;;;;;4956902;29;20035;-76
2023/12/18 00:21:44;;;;;;;4.65;2.92;;;3.60;61.50;;;;;;4956929;28;20023;-77
2023/12/18 00:24:09;;;;;;;6.35;3.25;;;3.50;61.90;;;;;;4956469;29;20031;-76
2023/12/18 00:26:35;;;;;;;4.90;3.63;;;3.40;62.50;;;;;;4939171;29;20078;-76
2023/12/18 00:29:00;;;;;;;6.85;2.63;;;3.40;63.10;;;;;;4956777;29;20070;-77
2023/12/18 00:31:26;;;;;;;8.05;3.53;;;3.30;63.10;;;;;;4956666;28;20150;-77
2023/12/18 00:33:52;;;;;;;5.50;3.15;;;3.30;63.40;;;;;;4956444;29;20094;-75
2023/12/18 00:36:17;;;;;;;7.00;3.35;;;3.20;63.70;;;;;;4956472;29;20077;-75
2023/12/18 00:38:43;;;;;;;7.10;3.38;;;3.20;64.30;;;;;;4939291;29;20396;-78
2023/12/18 00:41:08;;;;;;;15.45;7.25;;;3.10;65.00;;;;;;4956629;29;20035;-75
2023/12/18 00:43:34;;;;;;;15.20;6.40;;;2.90;67.10;;;;;;4956446;29;20023;-77
2023/12/18 00:46:00;;;;;;;12.63;6.28;;;2.90;67.10;;;;;;4956502;29;20099;-80
2023/12/18 00:48:26;;;;;;;11.27;6.25;;;2.80;67.40;;;;;;4956429;28;20111;-74
2023/12/18 00:50:52;;;;;;;11.52;6.60;;;2.80;67.50;;;;;;4956810;29;20055;-73
2023/12/18 00:53:17;;;;;;;11.40;6.40;;;2.80;67.70;;;;;;4959251;29;20181;-79
2023/12/18 00:55:43;;;;;;;14.88;7.47;;;2.80;67.60;;;;;;4957968;29;20043;-78
2023/12/18 00:58:09;;;;;;;12.52;7.05;;;2.80;68.60;;;;;;4958222;29;20528;-78
2023/12/18 01:00:35;;;;;;;12.88;6.80;;;2.90;67.70;;;;;;4957588;28;20109;-77
2023/12/18 01:03:01;;;;;;;15.15;7.07;;;2.90;68.40;;;;;;4938948;29;20058;-77
2023/12/18 01:05:26;;;;;;;10.65;6.28;;;2.90;67.60;;;;;;4956050;29;20024;-78
2023/12/18 01:07:52;;;;;;;12.82;7.38;;;2.90;67.40;;;;;;4955993;28;20023;-78
2023/12/18 01:10:17;;;;;;;11.85;6.22;;;3.00;68.10;;;;;;4956008;29;20023;-79
2023/12/18 01:12:43;;;;;;;11.20;6.55;;;3.00;67.20;;;;;;4956048;29;20023;-78
2023/12/18 01:15:09;;;;;;;13.77;6.43;;;2.90;67.20;;;;;;4955601;29;20075;-79
2023/12/18 01:17:34;;;;;;;15.45;7.43;;;2.90;67.20;;;;;;4955686;29;20109;-78
2023/12/18 01:20:00;;;;;;;12.18;7.10;;;2.90;67.40;;;;;;4955741;29;20037;-78
2023/12/18 01:22:26;;;;;;;14.65;7.70;;;2.90;67.60;;;;;;4938649;29;20468;-78
2023/12/18 01:24:51;;;;;;;13.68;7.72;;;2.90;67.60;;;;;;4955573;28;20042;-79
2023/12/18 01:27:17;;;;;;;15.25;7.72;;;2.80;67.30;;;;;;4955903;28;20027;-78
2023/12/18 01:29:42;;;;;;;13.65;7.13;;;2.80;67.30;;;;;;4955524;29;20031;-78
2023/12/18 01:32:08;;;;;;;14.48;6.53;;;2.70;67.60;;;;;;4955453;29;20111;-78
2023/12/18 01:34:34;;;;;;;10.98;5.88;;;2.70;68.00;;;;;;4955400;28;20039;-78
2023/12/18 01:37:00;;;;;;;8.30;5.57;;;2.60;68.10;;;;;;4955514;28;20055;-78
2023/12/18 01:39:25;;;;;;;9.40;4.97;;;2.50;68.50;;;;;;4938060;29;20541;-78
2023/12/18 01:41:51;;;;;;;9.50;5.25;;;2.60;68.60;;;;;;4955395;29;20074;-78
2023/12/18 01:44:16;;;;;;;8.68;5.85;;;2.60;68.50;;;;;;4955309;29;20028;-77
2023/12/18 01:46:44;;;;;;;12.25;5.75;;;2.60;68.50;;;;;;4955610;29;20385;-76
2023/12/18 01:49:09;;;;;;;10.85;5.43;;;2.60;68.80;;;;;;4937969;29;20031;-77
2023/12/18 01:51:35;;;;;;;8.52;5.45;;;2.70;69.00;;;;;;4955225;29;20035;-77
2023/12/18 01:54:02;;;;;;;9.43;5.30;;;2.70;69.00;;;;;;4955102;28;20074;-78
2023/12/18 01:56:33;;;;;;;7.75;5.35;;;2.70;69.40;;;;;;4955126;29;20066;-77
2023/12/18 01:58:59;;;;;;;8.18;5.03;;;2.60;69.30;;;;;;4955256;29;20026;-77
2023/12/18 02:01:26;;;;;;;8.70;5.13;;;2.60;69.00;;;;;;4955058;28;20131;-78
2023/12/18 02:03:53;;;;;;;8.23;4.60;;;2.70;68.90;;;;;;4955017;28;20476;-77
2023/12/18 02:06:19;;;;;;;7.72;4.13;;;2.70;68.50;;;;;;4955239;29;20035;-77
2023/12/18 02:08:45;;;;;;;5.75;4.03;;;2.80;67.70;;;;;;4937808;29;20495;-77
2023/12/18 02:11:11;;;;;;;6.75;3.97;;;2.80;67.50;;;;;;4955074;29;20031;-76
2023/12/18 02:13:40;;;;;;;7.32;3.47;;;2.80;67.40;;;;;;4954842;29;20037;-77
2023/12/18 02:16:06;;;;;;;5.88;3.30;;;2.90;67.50;;;;;;4954857;29;20031;-77
2023/12/18 02:18:32;;;;;;;9.23;3.60;;;2.90;67.40;;;;;;4954959;28;20027;-78
2023/12/18 02:20:57;;;;;;;4.93;3.63;;;2.80;67.30;;;;;;4955104;29;20114;-77
2023/12/18 02:23:23;;;;;;;5.00;3.17;;;2.90;67.20;;;;;;4954918;29;20020;-78
2023/12/18 02:25:49;;;;;;;6.72;3.35;;;2.90;67.10;;;;;;4937508;29;20031;-76
2023/12/18 02:28:16;;;;;;;5.55;3.28;;;2.90;67.00;;;;;;4937461;29;20027;-75
2023/12/18 02:30:42;;;;;;;6.35;3.72;;;2.90;67.00;;;;;;4954849;29;20035;-76
2023/12/18 02:33:07;;;;;;;7.00;4.10;;;2.90;66.90;;;;;;4954725;28;20023;-77
2023/12/18 02:35:33;;;;;;;6.20;3.75;;;2.90;66.90;;;;;;4955152;29;20039;-76
2023/12/18 02:37:58;;;;;;;5.53;3.35;;;2.90;67.20;;;;;;4954797;29;20034;-76
2023/12/18 02:40:25;;;;;;;4.57;2.88;;;2.90;67.20;;;;;;4954722;28;20031;-76
2023/12/18 02:42:51;;;;;;;5.95;3.45;;;2.90;67.40;;;;;;4954746;29;20027;-75
2023/12/18 02:45:17;;;;;;;7.40;3.53;;;2.90;68.10;;;;;;4954727;29;20031;-77
2023/12/18 02:47:43;;;;;;;5.30;2.95;;;2.90;67.30;;;;;;4954716;29;20030;-77
2023/12/18 02:50:08;;;;;;;4.45;2.45;;;2.90;67.50;;;;;;4954783;29;20042;-77
2023/12/18 02:52:34;;;;;;;5.30;3.10;;;2.90;67.60;;;;;;4954657;29;20380;-76
2023/12/18 02:55:00;;;;;;;4.55;3.42;;;2.90;67.80;;;;;;4954445;29;20043;-77
2023/12/18 02:57:26;;;;;;;5.10;3.15;;;3.00;67.90;;;;;;4954764;29;20457;-74
2023/12/18 02:59:51;;;;;;;5.30;3.22;;;3.00;67.90;;;;;;4937207;29;20510;-76
2023/12/18 03:02:17;;;;;;;7.18;3.25;;;3.00;68.00;;;;;;4954501;29;20540;-75
2023/12/18 03:04:43;;;;;;;7.00;3.40;;;2.90;68.00;;;;;;4937425;29;20377;-77
2023/12/18 03:07:09;;;;;;;5.93;3.53;;;2.90;69.20;;;;;;4954515;29;20148;-74
2023/12/18 03:09:34;;;;;;;6.97;3.90;;;2.80;68.40;;;;;;4954346;29;20034;-73
2023/12/18 03:12:00;;;;;;;5.13;3.60;;;2.80;68.80;;;;;;4955024;28;20023;-76
2023/12/18 03:14:26;;;;;;;5.93;3.88;;;2.70;69.20;;;;;;4958168;29;20050;-77
2023/12/18 03:16:51;;;;;;;5.78;3.25;;;2.70;69.70;;;;;;4957844;29;20038;-77
2023/12/18 03:19:18;;;;;;;5.68;2.85;;;2.70;70.30;;;;;;4958038;28;20113;-76
2023/12/18 03:21:44;;;;;;;4.97;3.17;;;2.60;70.60;;;;;;4957879;28;20027;-77
2023/12/18 03:24:10;;;;;;;5.22;3.03;;;2.60;72.10;;;;;;4957789;29;20046;-74
2023/12/18 03:26:36;;;;;;;4.68;2.83;;;2.60;71.60;;;;;;4957812;29;20019;-74
2023/12/18 03:29:02;;;;;;;5.43;3.30;;;2.60;71.80;;;;;;4957669;29;20034;-77
2023/12/18 03:31:27;;;;;;;8.07;3.30;;;2.60;71.40;;;;;;4957854;29;20031;-77
2023/12/18 03:33:53;;;;;;;6.85;3.35;;;2.60;71.00;;;;;;4940290;29;20031;-75
2023/12/18 03:36:18;;;;;;;6.45;2.88;;;2.50;71.10;;;;;;4957761;29;20110;-77
2023/12/18 03:38:44;;;;;;;5.60;3.55;;;2.50;71.20;;;;;;4957647;29;20038;-76
2023/12/18 03:41:09;;;;;;;3.47;2.80;;;2.60;70.90;;;;;;4957676;29;20031;-78
2023/12/18 03:43:35;;;;;;;3.47;2.55;;;2.60;70.40;;;;;;4957860;29;20419;-76
2023/12/18 03:46:01;;;;;;;3.08;2.50;;;2.70;70.10;;;;;;4940425;29;20455;-77
2023/12/18 03:48:27;;;;;;;3.72;2.47;;;2.70;70.00;;;;;;4940253;29;20122;-77
2023/12/18 03:50:52;;;;;;;4.85;2.55;;;2.70;70.30;;;;;;4957381;28;20133;-77
2023/12/18 03:53:18;;;;;;;3.65;2.38;;;2.70;69.80;;;;;;4957408;29;20055;-77
2023/12/18 03:55:43;;;;;;;5.88;2.38;;;2.70;70.00;;;;;;4957095;29;20075;-77
2023/12/18 03:58:09;;;;;;;6.45;2.50;;;2.70;70.10;;;;;;4957297;29;20031;-76
2023/12/18 04:00:34;;;;;;;5.45;2.85;;;2.70;69.90;;;;;;4957281;28;20044;-77
2023/12/18 04:03:02;;;;;;;4.05;2.72;;;2.70;69.90;;;;;;4940107;29;20027;-77
2023/12/18 04:05:28;;;;;;;6.20;3.72;;;2.60;69.80;;;;;;4957247;29;20028;-76
2023/12/18 04:07:53;;;;;;;4.88;3.17;;;2.50;70.50;;;;;;4957175;29;20027;-76
2023/12/18 04:10:19;;;;;;;5.68;3.03;;;2.60;70.60;;;;;;4957215;28;20031;-77
2023/12/18 04:12:44;;;;;;;5.75;3.45;;;2.60;70.50;;;;;;4957093;29;20028;-76
2023/12/18 04:15:11;;;;;;;5.85;2.88;;;2.60;71.20;;;;;;4957096;29;20114;-76
2023/12/18 04:17:37;;;;;;;4.03;2.65;;;2.60;70.30;;;;;;4939637;29;20074;-76
2023/12/18 04:20:03;;;;;;;3.45;2.30;;;2.70;70.10;;;;;;4957041;29;20066;-76
2023/12/18 04:22:29;;;;;;;2.92;2.42;;;2.70;70.40;;;;;;4956868;29;20110;-75
2023/12/18 04:24:55;;;;;;;4.65;2.90;;;2.80;70.40;;;;;;4955843;28;20074;-76
2023/12/18 04:27:20;;;;;;;3.67;2.80;;;2.80;70.40;;;;;;4939522;29;20035;-76
2023/12/18 04:29:46;;;;;;;4.40;2.70;;;2.70;70.50;;;;;;4956691;28;20015;-76
2023/12/18 04:32:11;;;;;;;4.18;2.35;;;2.70;71.00;;;;;;4956715;29;20192;-76
2023/12/18 04:34:37;;;;;;;4.15;2.83;;;2.70;70.80;;;;;;4956579;29;20035;-76
2023/12/18 04:37:03;;;;;;;4.95;3.05;;;2.70;70.10;;;;;;4956578;29;20031;-77
2023/12/18 04:39:28;;;;;;;3.60;2.65;;;2.80;69.50;;;;;;4957085;29;20034;-77
2023/12/18 04:41:54;;;;;;;4.07;2.50;;;2.90;69.20;;;;;;4956406;29;20023;-76
2023/12/18 04:44:20;;;;;;;3.97;2.63;;;3.00;68.80;;;;;;4956315;28;20412;-76
2023/12/18 04:46:46;;;;;;;4.90;3.05;;;3.00;68.70;;;;;;4956570;29;20388;-76
2023/12/18 04:49:13;;;;;;;4.53;2.63;;;3.10;68.80;;;;;;4956458;29;20020;-77
2023/12/18 04:51:38;;;;;;;4.95;2.67;;;3.10;69.00;;;;;;4956980;29;20023;-76
2023/12/18 04:54:04;;;;;;;4.03;2.88;;;3.10;69.20;;;;;;4939845;29;20396;-75
2023/12/18 04:56:29;;;;;;;5.85;2.97;;;3.00;69.40;;;;;;4957376;29;20114;-77
2023/12/18 04:58:55;;;;;;;5.72;3.35;;;2.90;69.70;;;;;;4962022;29;20038;-75
2023/12/18 05:01:20;;;;;;;4.90;3.20;;;2.80;70.00;;;;;;4956222;29;20094;-76
2023/12/18 05:03:46;;;;;;;5.57;3.28;;;2.70;70.50;;;;;;4956040;29;20070;-77
2023/12/18 05:06:19;;;;;;;5.35;3.35;;;2.60;70.50;;;;;;4955965;29;20066;-76
2023/12/18 05:08:44;;;;;;;5.50;3.63;;;2.60;70.60;;;;;;4955920;29;20043;-74
2023/12/18 05:11:10;;;;;;;5.05;2.65;;;2.60;70.50;;;;;;4955923;29;20370;-75
2023/12/18 05:13:35;;;;;;;8.15;4.22;;;2.60;70.60;;;;;;4955893;29;20041;-77
2023/12/18 05:16:01;;;;;;;5.55;3.40;;;2.60;70.30;;;;;;4938732;29;20047;-78
2023/12/18 05:18:27;;;;;;;5.68;3.35;;;2.60;70.20;;;;;;4938899;29;20031;-78
2023/12/18 05:20:53;;;;;;;4.72;2.63;;;2.70;69.60;;;;;;4938806;29;20079;-78
2023/12/18 05:23:19;;;;;;;5.85;3.38;;;2.70;68.80;;;;;;4938833;29;20031;-78
2023/12/18 05:25:44;;;;;;;5.45;3.63;;;2.70;68.60;;;;;;4938613;29;20042;-78
2023/12/18 05:28:10;;;;;;;5.18;3.58;;;2.70;68.80;;;;;;4956011;29;20106;-77
2023/12/18 05:30:36;;;;;;;5.38;3.55;;;2.70;68.70;;;;;;4955658;29;20023;-75
2023/12/18 05:33:02;;;;;;;5.50;3.33;;;2.70;68.90;;;;;;4955666;29;20026;-77
2023/12/18 05:35:28;;;;;;;7.20;4.18;;;2.60;68.80;;;;;;4955205;28;20399;-75
2023/12/18 05:37:53;;;;;;;5.95;4.15;;;2.70;68.50;;;;;;4955335;29;20035;-75
2023/12/18 05:40:19;;;;;;;7.95;4.75;;;2.70;68.70;;;;;;4955339;29;20441;-75
2023/12/18 05:42:44;;;;;;;7.55;5.03;;;2.50;69.00;;;;;;4955256;29;20043;-76
2023/12/18 05:45:10;;;;;;;8.80;4.78;;;2.40;69.50;;;;;;4955197;29;20067;-77
2023/12/18 05:47:35;;;;;;;7.00;4.22;;;2.30;70.00;;;;;;4937968;29;20113;-76
2023/12/18 05:50:01;;;;;;;7.07;3.88;;;2.30;70.20;;;;;;4955296;29;20050;-75
2023/12/18 05:52:27;;;;;;;7.43;3.42;;;2.20;70.20;;;;;;4955343;29;20023;-77
2023/12/18 05:54:52;;;;;;;7.90;3.95;;;2.20;70.50;;;;;;4937765;29;20105;-76
2023/12/18 05:57:19;;;;;;;7.45;4.53;;;2.10;70.70;;;;;;4955136;28;20035;-77
2023/12/18 05:59:44;;;;;;;7.00;4.10;;;2.20;70.40;;;;;;4938315;29;20080;-76
2023/12/18 06:02:10;;;;;;;6.30;4.03;;;2.20;70.10;;;;;;4955188;29;20453;-75
2023/12/18 06:04:36;;;;;;;9.20;4.40;;;2.20;70.80;;;;;;4955155;28;20039;-75
2023/12/18 06:07:01;;;;;;;6.65;3.85;;;2.20;69.90;;;;;;4955217;29;20464;-76
2023/12/18 06:09:27;;;;;;;7.35;4.25;;;2.30;70.10;;;;;;4955209;29;20059;-76
2023/12/18 06:11:52;;;;;;;5.43;3.53;;;2.30;69.90;;;;;;4955001;29;20512;-77
2023/12/18 06:14:18;;;;;;;6.13;4.47;;;2.30;69.80;;;;;;4955082;29;20038;-77
2023/12/18 06:16:43;;;;;;;7.53;4.13;;;2.40;69.60;;;;;;4954925;29;20023;-77
2023/12/18 06:19:09;;;;;;;5.72;3.72;;;2.40;69.30;;;;;;4955032;29;20035;-76
2023/12/18 06:21:40;;;;;;;5.93;3.50;;;2.40;69.20;;;;;;4954833;29;20055;-76
2023/12/18 06:24:05;;;;;;;7.35;3.53;;;2.40;69.20;;;;;;4937520;29;20086;-76
2023/12/18 06:26:31;;;;;;;6.28;4.32;;;2.50;69.10;;;;;;4954621;29;20031;-77
2023/12/18 06:28:56;;;;;;;7.43;4.15;;;2.50;69.10;;;;;;4954787;29;20035;-77
2023/12/18 06:31:22;;;;;;;6.18;3.97;;;2.50;69.00;;;;;;4955232;28;20070;-78
2023/12/18 06:33:48;;;;;;;6.50;3.85;;;2.40;69.00;;;;;;4954899;28;20034;-77
2023/12/18 06:36:19;;;;;;;8.10;3.67;;;2.40;69.30;;;;;;4954796;29;20055;-79
2023/12/18 06:38:45;;;;;;;5.63;3.28;;;2.40;70.10;;;;;;4954972;28;20086;-77
2023/12/18 06:41:10;;;;;;;4.70;3.28;;;2.40;69.10;;;;;;4954784;28;20103;-78
2023/12/18 06:43:36;;;;;;;5.18;3.28;;;2.40;68.90;;;;;;4954816;29;20068;-80
2023/12/18 06:46:02;;;;;;;6.05;3.70;;;2.40;69.10;;;;;;4954878;28;20477;-79
2023/12/18 06:48:27;;;;;;;5.22;3.38;;;2.40;68.90;;;;;;4942968;29;20024;-82
2023/12/18 06:50:53;;;;;;;8.10;3.88;;;2.50;69.10;;;;;;4951575;29;20078;-77
2023/12/18 06:53:19;;;;;;;7.93;3.53;;;2.50;69.10;;;;;;4964458;29;20042;-78
2023/12/18 06:55:44;;;;;;;8.30;4.07;;;2.50;69.10;;;;;;4958211;29;20468;-80
2023/12/18 06:58:10;;;;;;;7.40;4.28;;;2.50;69.20;;;;;;4958661;29;20036;-78
2023/12/18 07:00:35;;;;;;;8.57;4.50;;;2.50;69.50;;;;;;4958076;29;20031;-77
2023/12/18 07:03:01;;;;;;;6.40;3.80;;;2.40;69.40;;;;;;4941260;29;20034;-80
2023/12/18 07:05:29;;;;;;;5.57;3.92;;;2.30;69.90;;;;;;4959089;29;20118;-82
2023/12/18 07:07:55;;;;;;;6.18;3.50;;;2.30;70.00;;;;;;4958245;28;20102;-80
2023/12/18 07:10:21;;;;;;;9.75;4.55;;;2.30;70.30;;;;;;4961022;29;20038;-86
2023/12/18 07:12:47;;;;;;;10.70;6.00;;;2.30;70.90;;;;;;4960914;29;20016;-78
2023/12/18 07:15:12;;;;;;;8.32;4.95;;;2.30;71.00;;;;;;4961146;28;20082;-90
2023/12/18 07:17:38;;;;;;;11.02;4.88;;;2.30;70.80;;;;;;4958847;29;20059;-77
2023/12/18 07:20:05;;;;;;;7.93;4.72;;;2.40;71.50;;;;;;4958086;29;20023;-80
2023/12/18 07:22:33;;;;;;;11.52;4.93;;;2.90;80.40;;;;;;4958157;29;20042;-81
2023/12/18 07:24:58;;;;;;;12.15;5.47;;;3.50;78.50;;;;;;4940514;29;20397;-79
2023/12/18 07:27:24;;;;;;;14.55;5.68;;;4.10;74.70;;;;;;4957832;28;20031;-80
2023/12/18 07:29:58;;;;;;;24.05;6.13;;;4.50;68.00;;;;;;4957841;28;20533;-83
2023/12/18 07:32:24;;;;;;;14.55;5.30;;;4.70;65.60;;;;;;4940846;29;20041;-83
2023/12/18 07:34:49;;;;;;;15.00;6.88;;;5.00;65.60;;;;;;4940934;29;20032;-79
2023/12/18 07:37:15;;;;;;;12.68;6.50;;;5.20;59.80;;;;;;4957648;28;20047;-77
2023/12/18 07:39:41;;;;;;;5.38;4.10;;;5.30;60.20;;;;;;4941736;29;20055;-87
2023/12/18 07:42:06;;;;;;;8.82;5.10;;;5.10;57.70;;;;;;4959828;28;20439;-87
2023/12/18 07:44:32;;;;;;;19.13;8.77;;;4.80;58.50;;;;;;4958818;28;20043;-86
2023/12/18 07:46:58;;;;;;;12.68;8.10;;;4.30;61.60;;;;;;4960444;28;20027;-85
2023/12/18 07:49:23;;;;;;;10.50;6.68;;;3.80;64.40;;;;;;4959548;29;20106;-81
2023/12/18 07:51:49;;;;;;;12.02;5.43;;;3.50;65.50;;;;;;4958395;29;20031;-79
2023/12/18 07:54:15;;;;;;;13.70;7.07;;;3.50;65.80;;;;;;4958025;29;20036;-81
2023/12/18 07:56:41;;;;;;;10.80;6.60;;;3.40;66.20;;;;;;4958683;29;20090;-83
2023/12/18 07:59:07;;;;;;;9.27;5.90;;;3.40;65.90;;;;;;4958148;28;20027;-83
2023/12/18 08:01:34;;;;;;;8.73;5.40;;;3.40;65.60;;;;;;4940407;29;20038;-78
2023/12/18 08:03:59;;;;;;;14.30;9.45;;;3.40;65.50;;;;;;4958003;28;20416;-88
2023/12/18 08:06:25;;;;;;;8.93;5.63;;;3.30;65.50;;;;;;4958287;29;20035;-80
2023/12/18 08:08:51;;;;;;;22.27;14.05;;;3.40;65.40;;;;;;4958073;28;20476;-81
2023/12/18 08:11:16;;;;;;;12.48;7.60;;;3.40;64.80;;;;;;4957819;29;20030;-81
2023/12/18 08:13:42;;;;;;;25.00;12.55;;;3.50;64.50;;;;;;4944297;29;20028;-81
2023/12/18 08:16:09;;;;;;;7.07;4.38;;;3.50;64.40;;;;;;4959399;29;20047;-81
2023/12/18 08:18:34;;;;;;;11.57;6.15;;;3.60;64.40;;;;;;4957507;29;20055;-81
2023/12/18 08:21:00;;;;;;;9.05;5.07;;;3.60;64.60;;;;;;4940090;29;20369;-81
2023/12/18 08:23:26;;;;;;;15.02;6.38;;;3.70;65.40;;;;;;4957308;29;20027;-81
2023/12/18 08:25:52;;;;;;;14.95;6.35;;;3.80;66.60;;;;;;4939929;29;20031;-80
2023/12/18 08:28:18;;;;;;;13.98;6.50;;;3.80;66.80;;;;;;4939902;29;20477;-81
2023/12/18 08:30:44;;;;;;;13.98;6.47;;;3.90;67.00;;;;;;4957153;29;20106;-79
2023/12/18 08:33:10;;;;;;;13.57;6.05;;;3.90;67.00;;;;;;4956841;29;20392;-80
2023/12/18 08:35:35;;;;;;;10.25;5.85;;;4.00;66.70;;;;;;4956941;29;20440;-80
2023/12/18 08:38:01;;;;;;;8.27;5.15;;;4.10;66.30;;;;;;4939595;29;20034;-81
2023/12/18 08:40:27;;;;;;;8.35;4.90;;;4.30;66.30;;;;;;4956819;29;20027;-81
2023/12/18 08:42:52;;;;;;;8.70;5.07;;;4.50;65.90;;;;;;4939969;29;20027;-82
2023/12/18 08:45:18;;;;;;;12.20;5.65;;;4.60;65.20;;;;;;4939672;29;20040;-82
2023/12/18 08:47:43;;;;;;;12.98;6.78;;;4.80;64.10;;;;;;4939700;29;20043;-83
2023/12/18 08:50:09;;;;;;;12.20;6.80;;;4.80;63.00;;;;;;4940314;29;20118;-83
2023/12/18 08:52:35;;;;;;;12.70;7.57;;;4.90;63.50;;;;;;4940389;29;20031;-82
2023/12/18 08:55:02;;;;;;;11.65;6.57;;;5.20;63.20;;;;;;4939539;29;20066;-87
2023/12/18 08:57:28;;;;;;;12.00;6.43;;;5.50;62.40;;;;;;4943175;29;20023;-77
2023/12/18 08:59:55;;;;;;;11.40;6.45;;;5.80;60.50;;;;;;4961351;29;20042;-81
2023/12/18 09:02:20;;;;;;;8.90;5.65;;;6.10;59.50;;;;;;4945448;29;20424;-76
2023/12/18 09:04:46;;;;;;;10.48;5.20;;;6.40;58.70;;;;;;4947909;29;20102;-82
2023/12/18 09:07:12;;;;;;;10.15;5.82;;;6.70;57.90;;;;;;4944857;29;20142;-77
2023/12/18 09:09:39;;;;;;;8.82;5.60;;;7.00;56.70;;;;;;4962561;28;20051;-85
2023/12/18 09:12:08;;;;;;;10.88;5.45;;;7.40;55.30;;;;;;4940479;29;20365;-79
2023/12/18 09:14:35;;;;;;;11.88;5.22;;;7.80;53.90;;;;;;4938609;29;20031;-78
2023/12/18 09:17:00;;;;;;;11.57;6.03;;;8.00;52.60;;;;;;4938468;29;20046;-79
2023/12/18 09:19:26;;;;;;;11.75;5.38;;;8.30;51.70;;;;;;4939091;29;20468;-79
2023/12/18 09:21:52;;;;;;;8.70;5.22;;;8.60;50.60;;;;;;4939308;29;20058;-80
2023/12/18 09:24:18;;;;;;;8.55;4.70;;;8.80;50.30;;;;;;4938849;29;20031;-84
2023/12/18 09:26:44;;;;;;;11.63;5.55;;;9.20;49.50;;;;;;4939071;29;20031;-81
2023/12/18 09:29:09;;;;;;;11.85;6.10;;;9.50;48.40;;;;;;4941360;28;21287;-81
2023/12/18 09:31:35;;;;;;;10.48;6.50;;;9.80;47.00;;;;;;4942545;28;20031;-81
2023/12/18 09:34:01;;;;;;;12.05;7.18;;;10.10;46.60;;;;;;4977498;28;20102;-85
2023/12/18 09:36:26;;;;;;;15.45;9.32;;;10.40;46.20;;;;;;4960579;28;20030;-83
2023/12/18 09:38:52;;;;;;;16.90;10.27;;;10.50;44.80;;;;;;4964685;28;20097;-85
2023/12/18 09:41:23;;;;;;;12.95;9.07;;;10.50;45.10;;;;;;4960920;28;20026;-85
2023/12/18 09:43:53;;;;;;;15.95;10.35;;;10.60;44.10;;;;;;4961795;28;20440;-80
2023/12/18 09:46:23;;;;;;;11.77;8.52;;;10.50;44.20;;;;;;4978087;28;20628;-86
2023/12/18 09:48:50;;;;;;;13.88;8.95;;;10.50;44.90;;;;;;4959406;28;20459;-76
2023/12/18 09:51:17;;;;;;;13.88;8.82;;;10.70;45.30;;;;;;4976359;28;20114;-87
2023/12/18 09:53:43;;;;;;;13.02;10.07;;;10.90;44.10;;;;;;4959103;28;20030;-80
2023/12/18 09:56:10;;;;;;;11.10;6.15;;;11.20;43.70;;;;;;4957478;28;20051;-82
2023/12/18 09:58:37;;;;;;;10.55;4.65;;;11.50;43.20;;;;;;4957860;28;20025;-83
2023/12/18 10:01:22;;;;;;;8.25;4.60;;;11.60;43.50;;;;;;4957926;28;20379;-86
2023/12/18 10:03:48;;;;;;;5.45;3.78;;;11.80;43.30;;;;;;4957780;28;20058;-82
2023/12/18 10:06:13;;;;;;;6.97;3.70;;;12.10;42.80;;;;;;4975066;28;20035;-83
2023/12/18 10:08:39;;;;;;;10.82;4.57;;;12.30;41.90;;;;;;4958259;28;20044;-83
2023/12/18 10:11:05;;;;;;;7.72;4.25;;;12.50;41.10;;;;;;4975184;28;20031;-82
2023/12/18 10:13:34;;;;;;;10.30;4.47;;;12.70;40.70;;;;;;4957637;28;20118;-80
2023/12/18 10:16:00;;;;;;;7.72;4.25;;;12.80;40.30;;;;;;4957443;28;20026;-77
2023/12/18 10:18:26;;;;;;;7.47;4.10;;;12.90;39.80;;;;;;4956699;28;20471;-76
2023/12/18 10:20:52;;;;;;;8.07;4.57;;;13.10;39.50;;;;;;4956493;28;20082;-81
2023/12/18 10:23:17;;;;;;;9.07;4.47;;;13.40;39.00;;;;;;4956141;28;20027;-82
2023/12/18 10:25:43;;;;;;;9.13;4.47;;;13.70;38.40;;;;;;4956964;28;20039;-82
2023/12/18 10:28:09;;;;;;;7.03;4.25;;;14.00;37.60;;;;;;4974454;28;20027;-80
2023/12/18 10:30:35;;;;;;;5.35;3.78;;;14.20;37.20;;;;;;4957538;28;20035;-81
2023/12/18 10:33:05;;;;;;;6.75;4.18;;;14.30;37.20;;;;;;4957705;28;20165;-84
2023/12/18 10:35:35;;;;;;;7.95;3.92;;;14.60;36.30;;;;;;4956783;28;20049;-83
2023/12/18 10:38:02;;;;;;;6.95;4.10;;;14.80;35.60;;;;;;4957013;28;20030;-83
2023/12/18 10:40:28;;;;;;;6.20;3.92;;;15.10;35.10;;;;;;4974920;28;20030;-83
2023/12/18 10:43:24;;;;;;;5.45;3.70;;;15.20;34.10;;;;;;4957282;28;20420;-80
2023/12/18 10:45:54;;;;;;;7.03;4.40;;;15.50;34.10;;;;;;4974218;28;20035;-83
2023/12/18 10:48:20;;;;;;;7.25;4.32;;;16.00;33.10;;;;;;4974745;28;20031;-85
2023/12/18 10:50:49;;;;;;;7.55;4.25;;;16.20;31.70;;;;;;4951259;28;20058;-74
2023/12/18 10:53:17;;;;;;;7.28;4.10;;;16.40;32.20;;;;;;4937599;29;20023;-78
2023/12/18 10:55:42;;;;;;;5.78;3.88;;;16.90;31.10;;;;;;4938578;29;20051;-84
2023/12/18 10:58:10;;;;;;;6.35;3.85;;;17.50;29.80;;;;;;4958186;28;20091;-80
2023/12/18 11:00:38;;;;;;;7.50;4.38;;;18.10;28.10;;;;;;4941031;29;20078;-76
2023/12/18 11:03:05;;;;;;;6.10;4.40;;;18.80;28.10;;;;;;4937697;29;20027;-79
2023/12/18 11:05:31;;;;;;;8.77;4.25;;;19.60;25.80;;;;;;4937254;29;20035;-78
2023/12/18 11:07:57;;;;;;;7.13;4.45;;;20.20;24.30;;;;;;4954446;28;20082;-80
2023/12/18 11:10:25;;;;;;;7.72;4.40;;;20.90;23.20;;;;;;4954504;28;20024;-81
2023/12/18 11:12:55;;;;;;;6.47;4.57;;;21.80;22.10;;;;;;4937571;29;20078;-77
2023/12/18 11:15:41;;;;;;;5.97;3.78;;;22.50;20.40;;;;;;4954133;29;20023;-76
2023/12/18 11:18:13;;;;;;;6.50;4.50;;;23.40;19.00;;;;;;4954358;29;20110;-76
2023/12/18 11:20:42;;;;;;;5.70;4.13;;;24.10;17.50;;;;;;4954286;29;20031;-79
2023/12/18 11:23:10;;;;;;;6.95;3.88;;;24.80;16.90;;;;;;4937057;29;20476;-78
2023/12/18 11:25:56;;;;;;;5.63;3.50;;;25.40;16.20;;;;;;4955782;28;20085;-76
2023/12/18 11:28:24;;;;;;;8.32;4.50;;;26.20;15.60;;;;;;4951125;29;20100;-79
2023/12/18 11:30:50;;;;;;;5.47;4.18;;;26.90;14.30;;;;;;4936368;29;20027;-77
2023/12/18 11:33:19;;;;;;;7.00;4.15;;;27.50;13.90;;;;;;4937640;29;20020;-79
2023/12/18 11:35:47;;;;;;;4.80;3.30;;;28.00;13.10;;;;;;4939919;29;20031;-78
2023/12/18 11:38:15;;;;;;;6.90;3.97;;;28.50;12.20;;;;;;4956518;28;20142;-79
2023/12/18 11:40:45;;;;;;;5.82;3.53;;;28.90;11.30;;;;;;4939793;29;20038;-78
2023/12/18 11:43:13;;;;;;;4.53;3.33;;;28.70;11.70;;;;;;4939802;29;20027;-79
2023/12/18 11:45:43;;;;;;;5.80;3.72;;;28.90;11.50;;;;;;4937511;29;20023;-77
2023/12/18 11:48:14;;;;;;;5.82;3.28;;;29.30;11.80;;;;;;4956882;29;20015;-79
2023/12/18 11:50:40;;;;;;;4.78;2.85;;;29.70;12.00;;;;;;4937984;29;20023;-79
2023/12/18 11:53:26;;;;;;;5.45;3.35;;;30.30;11.30;;;;;;4957861;28;20030;-80
2023/12/18 11:55:52;;;;;;;5.30;3.05;;;31.10;10.60;;;;;;4926782;29;20101;-79
2023/12/18 11:58:25;;;;;;;6.70;3.45;;;31.90;9.90;;;;;;4939112;29;20031;-78
2023/12/18 12:00:51;;;;;;;6.82;3.40;;;32.60;9.40;;;;;;4939903;29;20126;-76
2023/12/18 12:03:18;;;;;;;4.93;3.78;;;33.20;8.80;;;;;;4938822;29;20476;-76
2023/12/18 12:05:46;;;;;;;5.90;3.78;;;33.50;8.10;;;;;;4939518;29;20031;-77
2023/12/18 12:08:12;;;;;;;6.60;3.45;;;33.90;7.30;;;;;;4938778;29;20617;-77
2023/12/18 12:10:46;;;;;;;4.43;3.80;;;34.00;7.50;;;;;;4939502;29;20133;-76
2023/12/18 12:13:22;;;;;;;5.77;4.07;;;34.40;7.70;;;;;;4956468;29;20385;-78
2023/12/18 12:16:01;;;;;;;7.38;3.60;;;34.90;6.80;;;;;;4939320;29;20299;-77
2023/12/18 12:18:33;;;;;;;3.83;3.30;;;35.40;6.70;;;;;;4958205;29;20019;-79
2023/12/18 12:20:59;;;;;;;4.82;3.58;;;35.90;5.90;;;;;;4939400;29;20464;-79
2023/12/18 12:23:25;;;;;;;5.38;3.85;;;36.30;5.70;;;;;;4939347;29;20027;-78
2023/12/18 12:25:52;;;;;;;4.18;3.33;;;36.50;4.90;;;;;;4956463;29;20209;-79
2023/12/18 12:28:18;;;;;;;5.00;4.50;;;36.70;5.10;;;;;;4938927;29;20057;-78
2023/12/18 12:30:47;;;;;;;5.40;4.90;;;37.10;5.20;;;;;;4938758;29;20547;-80
2023/12/18 12:33:13;;;;;;;4.93;4.20;;;37.50;4.90;;;;;;4955756;28;20036;-78
2023/12/18 12:35:40;;;;;;;5.90;4.47;;;37.50;4.60;;;;;;4956390;28;20023;-79
2023/12/18 12:38:05;;;;;;;4.68;3.90;;;37.60;4.70;;;;;;4938736;29;20389;-78
2023/12/18 12:40:42;;;;;;;5.20;3.90;;;38.00;4.70;;;;;;4956174;29;20035;-78
2023/12/18 12:43:10;;;;;;;6.85;4.10;;;38.30;4.40;;;;;;4956130;29;20469;-80
2023/12/18 12:45:37;;;;;;;7.43;4.35;;;38.70;4.10;;;;;;4938124;29;20074;-78
2023/12/18 12:48:07;;;;;;;6.65;4.30;;;39.00;4.10;;;;;;4956064;29;20019;-78
2023/12/18 12:50:37;;;;;;;5.57;4.07;;;38.80;3.40;;;;;;4956076;28;20028;-78